Lyndonville, VT

3:41 AM EDT on July 25, 2017 (GMT -0400)
Lyndonville

Weather History for KCDA - October, 2013

Change the Weather History Date:

Thursday, October 10, 2013

  Actual Average (K1V4) Record (K1V4)
Temperature  
Mean Temperature 47 °F -  
Max Temperature 61 °F 57 °F 92 °F (1909)
Min Temperature 33 °F 35 °F 21 °F (1902)
Degree Days  
Heating Degree Days 18    
Moisture  
Dew Point 37 °F    
Average Humidity 71    
Maximum Humidity 94    
Minimum Humidity 35    
Precipitation  
Precipitation 0.00 in - - ()
Sea Level Pressure  
Sea Level Pressure 30.30 in    
Wind  
Wind Speed 0 mph (SSE)    
Max Wind Speed 4 mph    
Max Gust Speed -    
Visibility 10 miles    
Events      
Averages and records for this station are not official NWS values.
T = Trace of Precipitation, MM = Missing Value Source: NWS Daily Summary

Daily Weather History Graph

Daily Weather History Graph

Search for Another Location

Airport or City:

Trip Planner

Search our weather history database for the weather conditions in past years. The results will help you decide how hot, cold, wet, or windy it might be!

Date:

Astronomy

Oct. 10, 2013 Rise Set
Actual Time 6:57 AM EDT 6:11 PM EDT
Civil Twilight 6:28 AM EDT 6:41 PM EDT
Nautical Twilight 5:54 AM EDT 7:14 PM EDT
Astronomical Twilight 5:20 AM EDT 7:48 PM EDT
Moon 12:55 PM EDT (10/10) 10:38 PM EDT (10/10)
Length of Visible Light 12h 13m
Length of Day
11h 14m
Waxing Crescent, 35% of the Moon is Illuminated
Oct 10
Waxing Crescent
Oct 11
First Quarter
Oct 18
Full
Oct 26
Last Quarter
Nov 3
New

Hourly Weather History & Observations

Time (EDT) Temp. Windchill Dew Point Humidity Pressure Visibility Wind Dir Wind Speed Gust Speed Precip Events Conditions
12:15 AM 40.1 °F - 34.9 °F 82% 30.37 in 10.0 mi Calm Calm - N/A   Clear
12:55 AM 41.5 °F - 34.9 °F 77% 30.37 in 10.0 mi Calm Calm - N/A   Clear
1:15 AM 39.7 °F - 34.7 °F 82% 30.37 in 10.0 mi Calm Calm - N/A   Clear
1:35 AM 38.5 °F - 34.0 °F 84% 30.36 in 10.0 mi Calm Calm - N/A   Clear
1:55 AM 37.2 °F - 33.8 °F 87% 30.36 in 10.0 mi Calm Calm - N/A   Clear
2:15 AM 36.7 °F - 32.9 °F 86% 30.36 in 10.0 mi Calm Calm - N/A   Clear
2:35 AM 36.9 °F - 33.8 °F 89% 30.36 in 10.0 mi Calm Calm - N/A   Clear
2:55 AM 36.0 °F - 33.3 °F 90% 30.35 in 10.0 mi Calm Calm - N/A   Clear
3:15 AM 35.6 °F - 32.9 °F 90% 30.35 in 10.0 mi Calm Calm - N/A   Clear
3:35 AM 35.4 °F - 33.1 °F 91% 30.35 in 10.0 mi Calm Calm - N/A   Clear
3:55 AM 35.1 °F - 32.9 °F 92% 30.35 in 5.0 mi Calm Calm - N/A   Clear
4:15 AM 35.4 °F - 33.3 °F 92% 30.35 in 10.0 mi Calm Calm - N/A   Clear
4:35 AM 35.6 °F - 33.1 °F 91% 30.35 in 10.0 mi Calm Calm - N/A   Clear
4:55 AM 35.1 °F - 32.9 °F 92% 30.36 in 10.0 mi Calm Calm - N/A   Clear
5:15 AM 35.1 °F - 32.9 °F 92% 30.35 in 7.0 mi Calm Calm - N/A   Clear
5:35 AM 34.9 °F - 32.7 °F 92% 30.35 in 10.0 mi Calm Calm - N/A   Clear
5:55 AM 34.7 °F - 32.7 °F 92% 30.35 in 7.0 mi Calm Calm - N/A   Clear
6:15 AM 35.1 °F 32.2 °F 32.9 °F 92% 30.35 in 10.0 mi WNW 3.5 mph - N/A   Clear
6:35 AM 34.2 °F - 32.2 °F 92% 30.35 in 10.0 mi Calm Calm - N/A   Clear
6:55 AM 33.6 °F - 32.0 °F 94% 30.35 in 2.5 mi Calm Calm - N/A   Clear
7:15 AM 34.2 °F - 32.2 °F 92% 30.35 in 7.0 mi Calm Calm - N/A   Clear
7:35 AM 34.0 °F - 32.0 °F 92% 30.35 in 7.0 mi Calm Calm - N/A   Clear
7:55 AM 34.3 °F - 32.2 °F 92% 30.36 in 10.0 mi Calm Calm - N/A   Clear
8:15 AM 35.1 °F - 32.9 °F 92% 30.36 in 10.0 mi Calm Calm - N/A   Clear
8:35 AM 36.9 °F - 34.7 °F 92% 30.36 in 10.0 mi Calm Calm - N/A   Clear
8:55 AM 38.7 °F - 36.1 °F 91% 30.36 in 10.0 mi Calm Calm - N/A   Clear
9:15 AM 39.7 °F - 36.9 °F 89% 30.35 in 10.0 mi Calm Calm - N/A   Clear
9:35 AM 41.2 °F - 37.9 °F 88% 30.35 in 10.0 mi Calm Calm - N/A   Clear
9:55 AM 41.2 °F - 36.9 °F 85% 30.35 in 10.0 mi Calm Calm - N/A   Clear
10:15 AM 42.6 °F - 37.8 °F 83% 30.34 in 10.0 mi Calm Calm - N/A   Clear
10:35 AM 44.6 °F - 39.2 °F 81% 30.34 in 10.0 mi Calm Calm - N/A   Clear
10:55 AM 45.5 °F - 39.7 °F 80% 30.34 in 10.0 mi Calm Calm - N/A   Clear
11:15 AM 47.5 °F - 40.1 °F 76% 30.33 in 10.0 mi Calm Calm - N/A   Clear
11:35 AM 48.9 °F - 41.0 °F 74% 30.33 in 10.0 mi Calm Calm - N/A   Clear
11:55 AM 50.0 °F - 40.8 °F 71% 30.32 in 10.0 mi Calm Calm - N/A   Clear
12:15 PM 51.6 °F - 39.6 °F 63% 30.32 in 10.0 mi Calm Calm - N/A   Clear
12:35 PM 52.7 °F - 40.8 °F 64% 30.31 in 10.0 mi Calm Calm - N/A   Clear
12:55 PM 54.5 °F - 39.9 °F 58% 30.30 in 10.0 mi Calm Calm - N/A   Clear
1:15 PM 56.3 °F - 39.9 °F 54% 30.30 in 10.0 mi Calm Calm - N/A   Clear
1:35 PM 58.3 °F - 39.6 °F 50% 30.29 in 10.0 mi Calm Calm - N/A   Clear
1:55 PM 60.3 °F - 39.7 °F 47% 30.28 in 10.0 mi Calm Calm - N/A   Clear
2:15 PM 61.3 °F - 37.9 °F 42% 30.28 in 10.0 mi SSE 3.5 mph - N/A   Clear
2:35 PM 60.6 °F - 38.1 °F 43% 30.27 in 10.0 mi Calm Calm - N/A   Clear
2:55 PM 61.5 °F - 37.4 °F 41% 30.27 in 10.0 mi SE 3.5 mph - N/A   Clear
3:15 PM 61.7 °F - 38.3 °F 42% 30.26 in 10.0 mi SE 3.5 mph - N/A   Clear
3:35 PM 61.7 °F - 33.6 °F 35% 30.26 in 10.0 mi Calm Calm - N/A   Clear
3:55 PM 61.7 °F - 34.5 °F 36% 30.26 in 10.0 mi Calm Calm - N/A   Clear
4:15 PM 60.8 °F - 36.3 °F 40% 30.26 in 10.0 mi Calm Calm - N/A   Clear
4:35 PM 61.5 °F - 35.2 °F 37% 30.26 in 10.0 mi Calm Calm - N/A   Clear
4:55 PM 61.2 °F - 37.2 °F 41% 30.25 in 10.0 mi Calm Calm - N/A   Clear
5:15 PM 61.2 °F - 39.6 °F 45% 30.25 in 10.0 mi Calm Calm - N/A   Clear
5:35 PM 60.3 °F - 40.3 °F 48% 30.25 in 10.0 mi Calm Calm - N/A   Clear
5:55 PM 58.1 °F - 38.3 °F 48% 30.25 in 10.0 mi Calm Calm - N/A   Clear
6:15 PM 56.8 °F - 39.6 °F 52% 30.25 in 10.0 mi Calm Calm - N/A   Clear
6:35 PM 55.8 °F - 37.4 °F 50% 30.25 in 10.0 mi Calm Calm - N/A   Clear
6:55 PM 56.7 °F - 37.0 °F 48% 30.25 in 10.0 mi Calm Calm - N/A   Clear
7:15 PM 56.3 °F - 40.1 °F 55% 30.24 in 10.0 mi Calm Calm - N/A   Clear
7:35 PM 55.4 °F - 40.1 °F 56% 30.24 in 10.0 mi Calm Calm - N/A   Clear
7:55 PM 52.9 °F - 41.2 °F 64% 30.24 in 10.0 mi Calm Calm - N/A   Clear
8:15 PM 51.3 °F - 41.2 °F 68% 30.24 in 10.0 mi Calm Calm - N/A   Clear
8:35 PM 51.1 °F - 41.5 °F 70% 30.24 in 10.0 mi Calm Calm - N/A   Clear
8:55 PM 52.0 °F - 41.2 °F 67% 30.24 in 10.0 mi Calm Calm - N/A   Clear
9:15 PM 51.8 °F - 40.1 °F 64% 30.24 in 10.0 mi Calm Calm - N/A   Clear
9:35 PM 51.4 °F - 40.3 °F 66% 30.24 in 10.0 mi Calm Calm - N/A   Clear
9:55 PM 50.9 °F - 41.2 °F 69% 30.24 in 10.0 mi Calm Calm - N/A   Clear
10:15 PM 48.6 °F - 40.8 °F 75% 30.24 in 10.0 mi Calm Calm - N/A   Clear
10:35 PM 49.1 °F - 40.3 °F 72% 30.24 in 10.0 mi Calm Calm - N/A   Clear
10:55 PM 50.0 °F - 39.4 °F 67% 30.23 in 10.0 mi Calm Calm - N/A   Clear
11:15 PM 49.1 °F - 40.5 °F 72% 30.22 in 10.0 mi Calm Calm - N/A   Clear
11:35 PM 46.9 °F - 40.1 °F 77% 30.22 in 10.0 mi Calm Calm - N/A   Clear
11:55 PM 45.3 °F - 39.9 °F 81% 30.22 in 10.0 mi Calm Calm - N/A   Clear